sensor_id;sensor_type;location;lat;lon;timestamp;P1;durP1;ratioP1;P2;durP2;ratioP2
9424;SDS011;17139;52.140;11.636;2023-04-24T00:01:39;3.50;;;3.17;;
9424;SDS011;17139;52.140;11.636;2023-04-24T00:04:06;3.30;;;3.10;;
9424;SDS011;17139;52.140;11.636;2023-04-24T00:06:36;3.00;;;2.90;;
9424;SDS011;17139;52.140;11.636;2023-04-24T00:09:03;3.08;;;2.78;;
9424;SDS011;17139;52.140;11.636;2023-04-24T00:11:30;3.00;;;2.80;;
9424;SDS011;17139;52.140;11.636;2023-04-24T00:13:57;2.67;;;2.58;;
9424;SDS011;17139;52.140;11.636;2023-04-24T00:16:26;2.45;;;2.35;;
9424;SDS011;17139;52.140;11.636;2023-04-24T00:18:53;2.33;;;2.20;;
9424;SDS011;17139;52.140;11.636;2023-04-24T00:21:20;2.10;;;2.10;;
9424;SDS011;17139;52.140;11.636;2023-04-24T00:23:50;1.98;;;1.90;;
9424;SDS011;17139;52.140;11.636;2023-04-24T00:26:18;2.60;;;2.40;;
9424;SDS011;17139;52.140;11.636;2023-04-24T00:28:45;2.30;;;2.20;;
9424;SDS011;17139;52.140;11.636;2023-04-24T00:31:12;1.60;;;1.60;;
9424;SDS011;17139;52.140;11.636;2023-04-24T00:33:40;1.73;;;1.63;;
9424;SDS011;17139;52.140;11.636;2023-04-24T00:36:07;2.15;;;1.83;;
9424;SDS011;17139;52.140;11.636;2023-04-24T00:38:35;1.55;;;1.45;;
9424;SDS011;17139;52.140;11.636;2023-04-24T00:41:02;1.63;;;1.52;;
9424;SDS011;17139;52.140;11.636;2023-04-24T00:43:29;1.50;;;1.50;;
9424;SDS011;17139;52.140;11.636;2023-04-24T00:45:56;2.25;;;1.42;;
9424;SDS011;17139;52.140;11.636;2023-04-24T00:48:24;1.38;;;1.38;;
9424;SDS011;17139;52.140;11.636;2023-04-24T00:50:53;1.30;;;1.20;;
9424;SDS011;17139;52.140;11.636;2023-04-24T00:53:20;1.25;;;1.25;;
9424;SDS011;17139;52.140;11.636;2023-04-24T00:55:47;0.95;;;0.95;;
9424;SDS011;17139;52.140;11.636;2023-04-24T00:58:15;0.90;;;0.90;;
9424;SDS011;17139;52.140;11.636;2023-04-24T01:00:42;0.75;;;0.75;;
9424;SDS011;17139;52.140;11.636;2023-04-24T01:03:10;0.88;;;0.85;;
9424;SDS011;17139;52.140;11.636;2023-04-24T01:05:38;0.95;;;0.95;;
9424;SDS011;17139;52.140;11.636;2023-04-24T01:08:07;0.90;;;0.90;;
9424;SDS011;17139;52.140;11.636;2023-04-24T01:10:34;0.90;;;0.90;;
9424;SDS011;17139;52.140;11.636;2023-04-24T01:13:02;1.00;;;1.00;;
9424;SDS011;17139;52.140;11.636;2023-04-24T01:15:29;0.70;;;0.70;;
9424;SDS011;17139;52.140;11.636;2023-04-24T01:17:56;1.10;;;1.10;;
9424;SDS011;17139;52.140;11.636;2023-04-24T01:20:23;0.90;;;0.90;;
9424;SDS011;17139;52.140;11.636;2023-04-24T01:22:53;1.00;;;1.00;;
9424;SDS011;17139;52.140;11.636;2023-04-24T01:25:21;0.90;;;0.90;;
9424;SDS011;17139;52.140;11.636;2023-04-24T01:27:48;0.88;;;0.88;;
9424;SDS011;17139;52.140;11.636;2023-04-24T01:30:16;0.80;;;0.80;;
9424;SDS011;17139;52.140;11.636;2023-04-24T01:32:43;1.85;;;1.13;;
9424;SDS011;17139;52.140;11.636;2023-04-24T01:35:11;0.98;;;0.98;;
9424;SDS011;17139;52.140;11.636;2023-04-24T01:37:38;0.80;;;0.80;;
9424;SDS011;17139;52.140;11.636;2023-04-24T01:40:07;0.98;;;0.98;;
9424;SDS011;17139;52.140;11.636;2023-04-24T01:42:35;0.80;;;0.80;;
9424;SDS011;17139;52.140;11.636;2023-04-24T01:45:03;1.15;;;1.15;;
9424;SDS011;17139;52.140;11.636;2023-04-24T01:47:31;1.00;;;1.00;;
9424;SDS011;17139;52.140;11.636;2023-04-24T01:49:58;1.17;;;0.90;;
9424;SDS011;17139;52.140;11.636;2023-04-24T01:52:26;1.10;;;1.10;;
9424;SDS011;17139;52.140;11.636;2023-04-24T01:54:56;1.10;;;1.10;;
9424;SDS011;17139;52.140;11.636;2023-04-24T01:57:26;0.90;;;0.90;;
9424;SDS011;17139;52.140;11.636;2023-04-24T01:59:55;0.82;;;0.82;;
9424;SDS011;17139;52.140;11.636;2023-04-24T02:02:22;0.93;;;0.93;;
9424;SDS011;17139;52.140;11.636;2023-04-24T02:04:52;1.50;;;1.40;;
9424;SDS011;17139;52.140;11.636;2023-04-24T02:07:19;1.05;;;1.02;;
9424;SDS011;17139;52.140;11.636;2023-04-24T02:09:46;1.80;;;1.05;;
9424;SDS011;17139;52.140;11.636;2023-04-24T02:12:13;2.10;;;1.13;;
9424;SDS011;17139;52.140;11.636;2023-04-24T02:14:43;1.00;;;1.00;;
9424;SDS011;17139;52.140;11.636;2023-04-24T02:17:10;1.02;;;1.02;;
9424;SDS011;17139;52.140;11.636;2023-04-24T02:19:40;0.98;;;0.98;;
9424;SDS011;17139;52.140;11.636;2023-04-24T02:22:07;0.90;;;0.90;;
9424;SDS011;17139;52.140;11.636;2023-04-24T02:24:35;0.88;;;0.88;;
9424;SDS011;17139;52.140;11.636;2023-04-24T02:27:02;0.90;;;0.90;;
9424;SDS011;17139;52.140;11.636;2023-04-24T02:29:29;1.10;;;1.10;;
9424;SDS011;17139;52.140;11.636;2023-04-24T02:31:58;0.90;;;0.90;;
9424;SDS011;17139;52.140;11.636;2023-04-24T02:34:25;4.73;;;1.20;;
9424;SDS011;17139;52.140;11.636;2023-04-24T02:36:52;1.47;;;1.03;;
9424;SDS011;17139;52.140;11.636;2023-04-24T02:39:20;1.20;;;1.20;;
9424;SDS011;17139;52.140;11.636;2023-04-24T02:41:47;2.10;;;1.00;;
9424;SDS011;17139;52.140;11.636;2023-04-24T02:44:14;1.20;;;1.20;;
9424;SDS011;17139;52.140;11.636;2023-04-24T02:46:42;1.47;;;1.40;;
9424;SDS011;17139;52.140;11.636;2023-04-24T02:49:11;0.98;;;0.98;;
9424;SDS011;17139;52.140;11.636;2023-04-24T02:51:38;1.80;;;1.20;;
9424;SDS011;17139;52.140;11.636;2023-04-24T02:54:06;2.60;;;1.20;;
9424;SDS011;17139;52.140;11.636;2023-04-24T02:56:34;1.33;;;1.17;;
9424;SDS011;17139;52.140;11.636;2023-04-24T02:59:01;3.35;;;1.00;;
9424;SDS011;17139;52.140;11.636;2023-04-24T03:01:28;1.00;;;1.00;;
9424;SDS011;17139;52.140;11.636;2023-04-24T03:03:56;1.07;;;0.97;;
9424;SDS011;17139;52.140;11.636;2023-04-24T03:06:24;1.20;;;1.20;;
9424;SDS011;17139;52.140;11.636;2023-04-24T03:08:52;1.40;;;1.20;;
9424;SDS011;17139;52.140;11.636;2023-04-24T03:11:19;1.38;;;1.27;;
9424;SDS011;17139;52.140;11.636;2023-04-24T03:13:46;3.50;;;1.17;;
9424;SDS011;17139;52.140;11.636;2023-04-24T03:16:13;1.50;;;0.93;;
9424;SDS011;17139;52.140;11.636;2023-04-24T03:18:40;1.27;;;1.23;;
9424;SDS011;17139;52.140;11.636;2023-04-24T03:21:07;1.10;;;1.10;;
9424;SDS011;17139;52.140;11.636;2023-04-24T03:23:36;1.27;;;1.27;;
9424;SDS011;17139;52.140;11.636;2023-04-24T03:26:03;1.30;;;1.30;;
9424;SDS011;17139;52.140;11.636;2023-04-24T03:28:30;1.03;;;1.03;;
9424;SDS011;17139;52.140;11.636;2023-04-24T03:30:57;1.58;;;1.10;;
9424;SDS011;17139;52.140;11.636;2023-04-24T03:33:24;1.07;;;1.07;;
9424;SDS011;17139;52.140;11.636;2023-04-24T03:35:52;2.50;;;1.60;;
9424;SDS011;17139;52.140;11.636;2023-04-24T03:38:18;1.63;;;1.52;;
9424;SDS011;17139;52.140;11.636;2023-04-24T03:40:47;1.20;;;1.20;;
9424;SDS011;17139;52.140;11.636;2023-04-24T03:43:14;2.40;;;1.37;;
9424;SDS011;17139;52.140;11.636;2023-04-24T03:45:41;1.53;;;1.43;;
9424;SDS011;17139;52.140;11.636;2023-04-24T03:48:08;1.47;;;1.47;;
9424;SDS011;17139;52.140;11.636;2023-04-24T03:50:35;1.10;;;1.07;;
9424;SDS011;17139;52.140;11.636;2023-04-24T03:53:02;1.40;;;1.30;;
9424;SDS011;17139;52.140;11.636;2023-04-24T03:55:29;1.37;;;1.20;;
9424;SDS011;17139;52.140;11.636;2023-04-24T03:57:57;2.30;;;1.60;;
9424;SDS011;17139;52.140;11.636;2023-04-24T04:00:24;1.10;;;1.10;;
9424;SDS011;17139;52.140;11.636;2023-04-24T04:02:52;1.48;;;1.48;;
9424;SDS011;17139;52.140;11.636;2023-04-24T04:05:20;1.50;;;1.40;;
9424;SDS011;17139;52.140;11.636;2023-04-24T04:07:47;1.40;;;1.40;;
9424;SDS011;17139;52.140;11.636;2023-04-24T04:10:14;1.10;;;1.10;;
9424;SDS011;17139;52.140;11.636;2023-04-24T04:12:42;1.60;;;1.60;;
9424;SDS011;17139;52.140;11.636;2023-04-24T04:15:11;2.23;;;1.37;;
9424;SDS011;17139;52.140;11.636;2023-04-24T04:17:38;1.70;;;1.13;;
9424;SDS011;17139;52.140;11.636;2023-04-24T04:20:05;1.27;;;1.17;;
9424;SDS011;17139;52.140;11.636;2023-04-24T04:22:35;1.13;;;1.00;;
9424;SDS011;17139;52.140;11.636;2023-04-24T04:25:02;2.63;;;1.27;;
9424;SDS011;17139;52.140;11.636;2023-04-24T04:27:29;1.13;;;1.13;;
9424;SDS011;17139;52.140;11.636;2023-04-24T04:29:57;1.73;;;1.63;;
9424;SDS011;17139;52.140;11.636;2023-04-24T04:32:26;1.45;;;1.35;;
9424;SDS011;17139;52.140;11.636;2023-04-24T04:34:52;1.33;;;1.20;;
9424;SDS011;17139;52.140;11.636;2023-04-24T04:37:19;1.47;;;1.40;;
9424;SDS011;17139;52.140;11.636;2023-04-24T04:39:47;0.90;;;0.90;;
9424;SDS011;17139;52.140;11.636;2023-04-24T04:42:14;1.00;;;1.00;;
9424;SDS011;17139;52.140;11.636;2023-04-24T04:44:41;1.23;;;1.23;;
9424;SDS011;17139;52.140;11.636;2023-04-24T04:47:09;1.20;;;1.10;;
9424;SDS011;17139;52.140;11.636;2023-04-24T04:49:38;2.53;;;1.30;;
9424;SDS011;17139;52.140;11.636;2023-04-24T04:52:06;1.20;;;1.10;;
9424;SDS011;17139;52.140;11.636;2023-04-24T04:54:33;1.25;;;1.20;;
9424;SDS011;17139;52.140;11.636;2023-04-24T04:57:00;1.10;;;1.10;;
9424;SDS011;17139;52.140;11.636;2023-04-24T04:59:27;0.93;;;0.93;;
9424;SDS011;17139;52.140;11.636;2023-04-24T05:01:54;1.77;;;0.90;;
9424;SDS011;17139;52.140;11.636;2023-04-24T05:04:21;0.90;;;0.90;;
9424;SDS011;17139;52.140;11.636;2023-04-24T05:06:49;1.03;;;1.03;;
9424;SDS011;17139;52.140;11.636;2023-04-24T05:09:17;1.17;;;1.17;;
9424;SDS011;17139;52.140;11.636;2023-04-24T05:11:44;1.20;;;1.03;;
9424;SDS011;17139;52.140;11.636;2023-04-24T05:14:11;1.00;;;1.00;;
9424;SDS011;17139;52.140;11.636;2023-04-24T05:16:42;1.10;;;1.10;;
9424;SDS011;17139;52.140;11.636;2023-04-24T05:19:10;1.08;;;1.08;;
9424;SDS011;17139;52.140;11.636;2023-04-24T05:21:39;2.88;;;1.40;;
9424;SDS011;17139;52.140;11.636;2023-04-24T05:24:07;1.23;;;1.00;;
9424;SDS011;17139;52.140;11.636;2023-04-24T05:26:34;1.40;;;1.30;;
9424;SDS011;17139;52.140;11.636;2023-04-24T05:29:01;1.42;;;1.33;;
9424;SDS011;17139;52.140;11.636;2023-04-24T05:31:29;1.00;;;1.00;;
9424;SDS011;17139;52.140;11.636;2023-04-24T05:33:56;1.42;;;1.35;;
9424;SDS011;17139;52.140;11.636;2023-04-24T05:36:23;1.08;;;1.08;;
9424;SDS011;17139;52.140;11.636;2023-04-24T05:38:50;1.30;;;1.30;;
9424;SDS011;17139;52.140;11.636;2023-04-24T05:41:18;1.30;;;1.30;;
9424;SDS011;17139;52.140;11.636;2023-04-24T05:43:46;2.78;;;0.88;;
9424;SDS011;17139;52.140;11.636;2023-04-24T05:46:13;1.05;;;1.05;;
9424;SDS011;17139;52.140;11.636;2023-04-24T05:48:40;0.80;;;0.80;;
9424;SDS011;17139;52.140;11.636;2023-04-24T05:51:07;1.05;;;1.05;;
9424;SDS011;17139;52.140;11.636;2023-04-24T05:53:35;2.72;;;1.60;;
9424;SDS011;17139;52.140;11.636;2023-04-24T05:56:02;3.10;;;2.60;;
9424;SDS011;17139;52.140;11.636;2023-04-24T05:58:30;3.50;;;2.25;;
9424;SDS011;17139;52.140;11.636;2023-04-24T06:00:57;2.40;;;2.30;;
9424;SDS011;17139;52.140;11.636;2023-04-24T06:03:26;2.35;;;2.25;;
9424;SDS011;17139;52.140;11.636;2023-04-24T06:05:53;2.17;;;2.08;;
9424;SDS011;17139;52.140;11.636;2023-04-24T06:08:21;2.30;;;2.20;;
9424;SDS011;17139;52.140;11.636;2023-04-24T06:10:48;1.48;;;1.48;;
9424;SDS011;17139;52.140;11.636;2023-04-24T06:13:16;2.00;;;2.00;;
9424;SDS011;17139;52.140;11.636;2023-04-24T06:15:44;1.40;;;1.40;;
9424;SDS011;17139;52.140;11.636;2023-04-24T06:18:11;1.52;;;1.52;;
9424;SDS011;17139;52.140;11.636;2023-04-24T06:20:38;2.33;;;1.77;;
9424;SDS011;17139;52.140;11.636;2023-04-24T06:23:05;1.88;;;1.77;;
9424;SDS011;17139;52.140;11.636;2023-04-24T06:25:32;1.38;;;1.38;;
9424;SDS011;17139;52.140;11.636;2023-04-24T06:28:00;2.58;;;1.23;;
9424;SDS011;17139;52.140;11.636;2023-04-24T06:30:27;2.17;;;2.03;;
9424;SDS011;17139;52.140;11.636;2023-04-24T06:32:56;1.73;;;1.63;;
9424;SDS011;17139;52.140;11.636;2023-04-24T06:35:23;1.38;;;1.38;;
9424;SDS011;17139;52.140;11.636;2023-04-24T06:37:50;1.40;;;1.30;;
9424;SDS011;17139;52.140;11.636;2023-04-24T06:40:17;6.60;;;2.75;;
9424;SDS011;17139;52.140;11.636;2023-04-24T06:42:44;1.98;;;1.88;;
9424;SDS011;17139;52.140;11.636;2023-04-24T06:45:11;2.20;;;2.10;;
9424;SDS011;17139;52.140;11.636;2023-04-24T06:47:38;2.20;;;2.10;;
9424;SDS011;17139;52.140;11.636;2023-04-24T06:50:07;2.00;;;1.90;;
9424;SDS011;17139;52.140;11.636;2023-04-24T06:52:35;4.30;;;2.50;;
9424;SDS011;17139;52.140;11.636;2023-04-24T06:55:02;2.58;;;2.38;;
9424;SDS011;17139;52.140;11.636;2023-04-24T06:57:30;2.45;;;2.35;;
9424;SDS011;17139;52.140;11.636;2023-04-24T06:59:58;6.70;;;1.77;;
9424;SDS011;17139;52.140;11.636;2023-04-24T07:02:25;4.55;;;1.90;;
9424;SDS011;17139;52.140;11.636;2023-04-24T07:04:52;5.72;;;1.90;;
9424;SDS011;17139;52.140;11.636;2023-04-24T07:07:20;1.73;;;1.63;;
9424;SDS011;17139;52.140;11.636;2023-04-24T07:09:48;1.73;;;1.63;;
9424;SDS011;17139;52.140;11.636;2023-04-24T07:12:15;1.40;;;1.38;;
9424;SDS011;17139;52.140;11.636;2023-04-24T07:14:45;1.60;;;1.50;;
9424;SDS011;17139;52.140;11.636;2023-04-24T07:17:12;1.50;;;1.40;;
9424;SDS011;17139;52.140;11.636;2023-04-24T07:19:39;2.05;;;1.25;;
9424;SDS011;17139;52.140;11.636;2023-04-24T07:22:07;1.15;;;1.15;;
9424;SDS011;17139;52.140;11.636;2023-04-24T07:24:35;1.02;;;1.02;;
9424;SDS011;17139;52.140;11.636;2023-04-24T07:27:02;1.20;;;1.10;;
9424;SDS011;17139;52.140;11.636;2023-04-24T07:29:30;1.08;;;1.00;;
9424;SDS011;17139;52.140;11.636;2023-04-24T07:31:57;1.30;;;1.15;;
9424;SDS011;17139;52.140;11.636;2023-04-24T07:34:24;1.48;;;1.38;;
9424;SDS011;17139;52.140;11.636;2023-04-24T07:36:51;1.10;;;1.00;;
9424;SDS011;17139;52.140;11.636;2023-04-24T07:39:18;1.30;;;1.30;;
9424;SDS011;17139;52.140;11.636;2023-04-24T07:41:47;0.77;;;0.77;;
9424;SDS011;17139;52.140;11.636;2023-04-24T07:44:14;1.10;;;1.10;;
9424;SDS011;17139;52.140;11.636;2023-04-24T07:46:41;1.10;;;1.10;;
9424;SDS011;17139;52.140;11.636;2023-04-24T07:49:08;1.15;;;0.82;;
9424;SDS011;17139;52.140;11.636;2023-04-24T07:51:35;1.10;;;1.10;;
9424;SDS011;17139;52.140;11.636;2023-04-24T07:54:03;0.90;;;0.90;;
9424;SDS011;17139;52.140;11.636;2023-04-24T07:56:31;1.00;;;1.00;;
9424;SDS011;17139;52.140;11.636;2023-04-24T07:59:00;1.98;;;1.48;;
9424;SDS011;17139;52.140;11.636;2023-04-24T08:01:27;3.72;;;1.60;;
9424;SDS011;17139;52.140;11.636;2023-04-24T08:03:54;1.40;;;0.90;;
9424;SDS011;17139;52.140;11.636;2023-04-24T08:06:21;0.88;;;0.88;;
9424;SDS011;17139;52.140;11.636;2023-04-24T08:08:49;1.58;;;0.90;;
9424;SDS011;17139;52.140;11.636;2023-04-24T08:11:16;1.08;;;1.08;;
9424;SDS011;17139;52.140;11.636;2023-04-24T08:13:43;1.35;;;1.25;;
9424;SDS011;17139;52.140;11.636;2023-04-24T08:16:12;0.80;;;0.80;;
9424;SDS011;17139;52.140;11.636;2023-04-24T08:18:39;1.48;;;0.85;;
9424;SDS011;17139;52.140;11.636;2023-04-24T08:21:06;2.47;;;1.00;;
9424;SDS011;17139;52.140;11.636;2023-04-24T08:23:33;0.77;;;0.77;;
9424;SDS011;17139;52.140;11.636;2023-04-24T08:26:00;0.75;;;0.75;;
9424;SDS011;17139;52.140;11.636;2023-04-24T08:28:28;0.70;;;0.70;;
9424;SDS011;17139;52.140;11.636;2023-04-24T08:30:55;0.90;;;0.90;;
9424;SDS011;17139;52.140;11.636;2023-04-24T08:33:23;0.60;;;0.60;;
9424;SDS011;17139;52.140;11.636;2023-04-24T08:35:50;1.33;;;0.88;;
9424;SDS011;17139;52.140;11.636;2023-04-24T08:38:18;1.00;;;1.00;;
9424;SDS011;17139;52.140;11.636;2023-04-24T08:40:46;0.90;;;0.90;;
9424;SDS011;17139;52.140;11.636;2023-04-24T08:43:14;0.98;;;0.98;;
9424;SDS011;17139;52.140;11.636;2023-04-24T08:45:42;0.98;;;0.98;;
9424;SDS011;17139;52.140;11.636;2023-04-24T08:48:09;0.88;;;0.88;;
9424;SDS011;17139;52.140;11.636;2023-04-24T08:50:38;1.17;;;1.17;;
9424;SDS011;17139;52.140;11.636;2023-04-24T08:53:07;2.40;;;1.15;;
9424;SDS011;17139;52.140;11.636;2023-04-24T08:55:35;0.82;;;0.82;;
9424;SDS011;17139;52.140;11.636;2023-04-24T08:58:03;1.05;;;1.05;;
9424;SDS011;17139;52.140;11.636;2023-04-24T09:00:30;0.70;;;0.70;;
9424;SDS011;17139;52.140;11.636;2023-04-24T09:03:00;0.85;;;0.85;;
9424;SDS011;17139;52.140;11.636;2023-04-24T09:05:28;0.70;;;0.70;;
9424;SDS011;17139;52.140;11.636;2023-04-24T09:07:57;0.90;;;0.90;;
9424;SDS011;17139;52.140;11.636;2023-04-24T09:10:28;0.68;;;0.68;;
9424;SDS011;17139;52.140;11.636;2023-04-24T09:12:55;0.88;;;0.88;;
9424;SDS011;17139;52.140;11.636;2023-04-24T09:15:26;3.50;;;0.88;;
9424;SDS011;17139;52.140;11.636;2023-04-24T09:17:54;3.10;;;1.30;;
9424;SDS011;17139;52.140;11.636;2023-04-24T09:20:21;0.90;;;0.90;;
9424;SDS011;17139;52.140;11.636;2023-04-24T09:22:48;1.50;;;0.90;;
9424;SDS011;17139;52.140;11.636;2023-04-24T09:25:22;0.85;;;0.85;;
9424;SDS011;17139;52.140;11.636;2023-04-24T09:27:53;1.00;;;1.00;;
9424;SDS011;17139;52.140;11.636;2023-04-24T09:30:21;0.50;;;0.50;;
9424;SDS011;17139;52.140;11.636;2023-04-24T09:32:49;1.70;;;1.00;;
9424;SDS011;17139;52.140;11.636;2023-04-24T09:35:16;1.70;;;0.70;;
9424;SDS011;17139;52.140;11.636;2023-04-24T09:37:43;0.73;;;0.73;;
9424;SDS011;17139;52.140;11.636;2023-04-24T09:40:12;1.08;;;1.08;;
9424;SDS011;17139;52.140;11.636;2023-04-24T09:42:44;1.00;;;1.00;;
9424;SDS011;17139;52.140;11.636;2023-04-24T09:45:12;1.40;;;1.30;;
9424;SDS011;17139;52.140;11.636;2023-04-24T09:47:40;1.25;;;1.17;;
9424;SDS011;17139;52.140;11.636;2023-04-24T09:50:13;0.90;;;0.90;;
9424;SDS011;17139;52.140;11.636;2023-04-24T09:52:42;1.17;;;1.17;;
9424;SDS011;17139;52.140;11.636;2023-04-24T09:55:11;1.95;;;1.25;;
9424;SDS011;17139;52.140;11.636;2023-04-24T09:57:50;1.70;;;1.35;;
9424;SDS011;17139;52.140;11.636;2023-04-24T10:00:22;1.70;;;1.60;;
9424;SDS011;17139;52.140;11.636;2023-04-24T10:02:53;1.27;;;1.17;;
9424;SDS011;17139;52.140;11.636;2023-04-24T10:05:26;1.63;;;1.52;;
9424;SDS011;17139;52.140;11.636;2023-04-24T10:08:01;2.15;;;1.27;;
9424;SDS011;17139;52.140;11.636;2023-04-24T10:10:29;1.40;;;1.30;;
9424;SDS011;17139;52.140;11.636;2023-04-24T10:12:58;2.65;;;1.40;;
9424;SDS011;17139;52.140;11.636;2023-04-24T10:15:25;1.10;;;1.10;;
9424;SDS011;17139;52.140;11.636;2023-04-24T10:17:53;1.50;;;1.40;;
9424;SDS011;17139;52.140;11.636;2023-04-24T10:20:20;1.25;;;1.25;;
9424;SDS011;17139;52.140;11.636;2023-04-24T10:22:49;1.55;;;1.45;;
9424;SDS011;17139;52.140;11.636;2023-04-24T10:25:18;1.20;;;1.20;;
9424;SDS011;17139;52.140;11.636;2023-04-24T10:27:46;1.50;;;1.50;;
9424;SDS011;17139;52.140;11.636;2023-04-24T10:30:16;1.40;;;1.23;;
9424;SDS011;17139;52.140;11.636;2023-04-24T10:32:43;1.20;;;1.20;;
9424;SDS011;17139;52.140;11.636;2023-04-24T10:35:11;1.67;;;1.60;;
9424;SDS011;17139;52.140;11.636;2023-04-24T10:37:40;1.40;;;1.30;;
9424;SDS011;17139;52.140;11.636;2023-04-24T10:40:11;0.82;;;0.82;;
9424;SDS011;17139;52.140;11.636;2023-04-24T10:42:46;1.00;;;1.00;;
9424;SDS011;17139;52.140;11.636;2023-04-24T10:45:19;1.30;;;1.30;;
9424;SDS011;17139;52.140;11.636;2023-04-24T10:47:53;1.65;;;1.55;;
9424;SDS011;17139;52.140;11.636;2023-04-24T10:50:24;1.10;;;1.10;;
9424;SDS011;17139;52.140;11.636;2023-04-24T10:52:52;1.40;;;1.30;;
9424;SDS011;17139;52.140;11.636;2023-04-24T10:58:12;1.20;;;1.20;;
9424;SDS011;17139;52.140;11.636;2023-04-24T11:00:41;1.27;;;1.27;;
9424;SDS011;17139;52.140;11.636;2023-04-24T11:03:22;1.20;;;1.20;;
9424;SDS011;17139;52.140;11.636;2023-04-24T11:05:51;1.02;;;1.02;;
9424;SDS011;17139;52.140;11.636;2023-04-24T11:08:22;0.90;;;0.90;;
9424;SDS011;17139;52.140;11.636;2023-04-24T11:10:55;1.13;;;1.13;;
9424;SDS011;17139;52.140;11.636;2023-04-24T11:13:24;0.98;;;0.98;;
9424;SDS011;17139;52.140;11.636;2023-04-24T11:18:40;1.02;;;1.02;;
9424;SDS011;17139;52.140;11.636;2023-04-24T11:21:11;1.05;;;1.05;;
9424;SDS011;17139;52.140;11.636;2023-04-24T11:23:38;1.15;;;0.90;;
9424;SDS011;17139;52.140;11.636;2023-04-24T11:26:12;0.98;;;0.98;;
9424;SDS011;17139;52.140;11.636;2023-04-24T11:28:46;2.20;;;1.20;;
9424;SDS011;17139;52.140;11.636;2023-04-24T11:34:08;0.93;;;0.93;;
9424;SDS011;17139;52.140;11.636;2023-04-24T11:36:37;4.18;;;1.10;;
9424;SDS011;17139;52.140;11.636;2023-04-24T11:39:04;3.58;;;1.10;;
9424;SDS011;17139;52.140;11.636;2023-04-24T11:41:33;1.10;;;1.10;;
9424;SDS011;17139;52.140;11.636;2023-04-24T11:44:01;1.60;;;1.50;;
9424;SDS011;17139;52.140;11.636;2023-04-24T11:46:29;1.08;;;1.08;;
9424;SDS011;17139;52.140;11.636;2023-04-24T11:48:58;0.90;;;0.90;;
9424;SDS011;17139;52.140;11.636;2023-04-24T11:51:26;1.17;;;1.17;;
9424;SDS011;17139;52.140;11.636;2023-04-24T11:53:54;2.17;;;1.15;;
9424;SDS011;17139;52.140;11.636;2023-04-24T11:56:22;2.63;;;1.50;;
9424;SDS011;17139;52.140;11.636;2023-04-24T11:58:51;1.00;;;1.00;;
9424;SDS011;17139;52.140;11.636;2023-04-24T12:01:19;1.33;;;1.33;;
9424;SDS011;17139;52.140;11.636;2023-04-24T12:03:47;1.38;;;1.38;;
9424;SDS011;17139;52.140;11.636;2023-04-24T12:06:17;1.30;;;1.30;;
9424;SDS011;17139;52.140;11.636;2023-04-24T12:08:46;1.25;;;1.25;;
9424;SDS011;17139;52.140;11.636;2023-04-24T12:11:15;3.17;;;1.48;;
9424;SDS011;17139;52.140;11.636;2023-04-24T12:13:44;1.30;;;1.30;;
9424;SDS011;17139;52.140;11.636;2023-04-24T12:16:11;1.38;;;1.38;;
9424;SDS011;17139;52.140;11.636;2023-04-24T12:18:42;1.38;;;1.38;;
9424;SDS011;17139;52.140;11.636;2023-04-24T12:21:18;1.40;;;1.40;;
9424;SDS011;17139;52.140;11.636;2023-04-24T12:23:46;4.15;;;1.33;;
9424;SDS011;17139;52.140;11.636;2023-04-24T12:26:16;1.40;;;1.30;;
9424;SDS011;17139;52.140;11.636;2023-04-24T12:28:47;1.40;;;1.40;;
9424;SDS011;17139;52.140;11.636;2023-04-24T12:31:15;1.13;;;1.00;;
9424;SDS011;17139;52.140;11.636;2023-04-24T12:33:43;1.52;;;1.50;;
9424;SDS011;17139;52.140;11.636;2023-04-24T12:36:10;1.10;;;1.10;;
9424;SDS011;17139;52.140;11.636;2023-04-24T12:38:42;1.13;;;0.93;;
9424;SDS011;17139;52.140;11.636;2023-04-24T12:41:12;0.90;;;0.90;;
9424;SDS011;17139;52.140;11.636;2023-04-24T12:43:50;2.03;;;1.10;;
9424;SDS011;17139;52.140;11.636;2023-04-24T12:46:18;1.00;;;1.00;;
9424;SDS011;17139;52.140;11.636;2023-04-24T12:48:45;0.90;;;0.90;;
9424;SDS011;17139;52.140;11.636;2023-04-24T12:51:12;1.00;;;1.00;;
9424;SDS011;17139;52.140;11.636;2023-04-24T12:53:41;0.98;;;0.98;;
9424;SDS011;17139;52.140;11.636;2023-04-24T12:56:08;1.10;;;1.10;;
9424;SDS011;17139;52.140;11.636;2023-04-24T12:58:35;1.13;;;1.13;;
9424;SDS011;17139;52.140;11.636;2023-04-24T13:01:02;1.00;;;1.00;;
9424;SDS011;17139;52.140;11.636;2023-04-24T13:03:29;1.40;;;1.40;;
9424;SDS011;17139;52.140;11.636;2023-04-24T13:05:56;1.25;;;1.20;;
9424;SDS011;17139;52.140;11.636;2023-04-24T13:08:23;1.00;;;1.00;;
9424;SDS011;17139;52.140;11.636;2023-04-24T13:10:51;1.27;;;1.27;;
9424;SDS011;17139;52.140;11.636;2023-04-24T13:13:19;1.10;;;1.00;;
9424;SDS011;17139;52.140;11.636;2023-04-24T13:15:46;2.40;;;1.23;;
9424;SDS011;17139;52.140;11.636;2023-04-24T13:18:13;3.92;;;1.50;;
9424;SDS011;17139;52.140;11.636;2023-04-24T13:20:40;1.20;;;1.20;;
9424;SDS011;17139;52.140;11.636;2023-04-24T13:23:07;1.38;;;1.38;;
9424;SDS011;17139;52.140;11.636;2023-04-24T13:25:35;1.33;;;1.33;;
9424;SDS011;17139;52.140;11.636;2023-04-24T13:28:05;1.30;;;1.30;;
9424;SDS011;17139;52.140;11.636;2023-04-24T13:30:32;1.42;;;1.30;;
9424;SDS011;17139;52.140;11.636;2023-04-24T13:32:59;1.10;;;1.10;;
9424;SDS011;17139;52.140;11.636;2023-04-24T13:35:26;3.60;;;1.10;;
9424;SDS011;17139;52.140;11.636;2023-04-24T13:37:53;0.80;;;0.80;;
9424;SDS011;17139;52.140;11.636;2023-04-24T13:40:21;0.93;;;0.93;;
9424;SDS011;17139;52.140;11.636;2023-04-24T13:42:48;1.20;;;1.20;;
9424;SDS011;17139;52.140;11.636;2023-04-24T13:45:17;1.00;;;1.00;;
9424;SDS011;17139;52.140;11.636;2023-04-24T13:47:44;1.20;;;1.20;;
9424;SDS011;17139;52.140;11.636;2023-04-24T13:50:11;1.00;;;1.00;;
9424;SDS011;17139;52.140;11.636;2023-04-24T13:52:38;0.80;;;0.80;;
9424;SDS011;17139;52.140;11.636;2023-04-24T13:55:06;1.42;;;1.00;;
9424;SDS011;17139;52.140;11.636;2023-04-24T13:57:33;0.65;;;0.65;;
9424;SDS011;17139;52.140;11.636;2023-04-24T14:00:00;1.20;;;1.10;;
9424;SDS011;17139;52.140;11.636;2023-04-24T14:02:30;5.13;;;1.70;;
9424;SDS011;17139;52.140;11.636;2023-04-24T14:04:57;1.00;;;1.00;;
9424;SDS011;17139;52.140;11.636;2023-04-24T14:07:24;1.13;;;1.08;;
9424;SDS011;17139;52.140;11.636;2023-04-24T14:09:51;1.20;;;1.20;;
9424;SDS011;17139;52.140;11.636;2023-04-24T14:12:18;0.45;;;0.45;;
9424;SDS011;17139;52.140;11.636;2023-04-24T14:14:46;1.10;;;1.10;;
9424;SDS011;17139;52.140;11.636;2023-04-24T14:17:13;1.00;;;1.00;;
9424;SDS011;17139;52.140;11.636;2023-04-24T14:19:42;1.13;;;1.02;;
9424;SDS011;17139;52.140;11.636;2023-04-24T14:22:09;0.70;;;0.70;;
9424;SDS011;17139;52.140;11.636;2023-04-24T14:24:36;0.68;;;0.68;;
9424;SDS011;17139;52.140;11.636;2023-04-24T14:27:03;0.75;;;0.60;;
9424;SDS011;17139;52.140;11.636;2023-04-24T14:29:30;0.60;;;0.60;;
9424;SDS011;17139;52.140;11.636;2023-04-24T14:31:57;0.70;;;0.70;;
9424;SDS011;17139;52.140;11.636;2023-04-24T14:34:24;0.70;;;0.70;;
9424;SDS011;17139;52.140;11.636;2023-04-24T14:36:53;0.63;;;0.63;;
9424;SDS011;17139;52.140;11.636;2023-04-24T14:39:20;0.43;;;0.43;;
9424;SDS011;17139;52.140;11.636;2023-04-24T14:41:47;0.40;;;0.40;;
9424;SDS011;17139;52.140;11.636;2023-04-24T14:44:14;0.40;;;0.40;;
9424;SDS011;17139;52.140;11.636;2023-04-24T14:46:41;0.60;;;0.60;;
9424;SDS011;17139;52.140;11.636;2023-04-24T14:49:08;0.50;;;0.50;;
9424;SDS011;17139;52.140;11.636;2023-04-24T14:51:37;0.50;;;0.50;;
9424;SDS011;17139;52.140;11.636;2023-04-24T14:54:05;1.33;;;0.50;;
9424;SDS011;17139;52.140;11.636;2023-04-24T14:56:33;0.70;;;0.70;;
9424;SDS011;17139;52.140;11.636;2023-04-24T14:59:00;0.88;;;0.88;;
9424;SDS011;17139;52.140;11.636;2023-04-24T15:01:27;0.50;;;0.50;;